sensor_id;sensor_type;location;lat;lon;timestamp;P1;durP1;ratioP1;P2;durP2;ratioP2
26512;SDS011;14186;53.822;10.152;2023-01-16T00:04:47;10.32;;;2.55;;
26512;SDS011;14186;53.822;10.152;2023-01-16T00:09:47;7.45;;;2.28;;
26512;SDS011;14186;53.822;10.152;2023-01-16T00:14:49;9.98;;;2.40;;
26512;SDS011;14186;53.822;10.152;2023-01-16T00:19:49;6.88;;;2.10;;
26512;SDS011;14186;53.822;10.152;2023-01-16T00:24:49;5.95;;;2.28;;
26512;SDS011;14186;53.822;10.152;2023-01-16T00:29:51;7.47;;;2.55;;
26512;SDS011;14186;53.822;10.152;2023-01-16T00:34:51;6.60;;;2.78;;
26512;SDS011;14186;53.822;10.152;2023-01-16T00:39:51;7.35;;;3.00;;
26512;SDS011;14186;53.822;10.152;2023-01-16T00:44:52;7.22;;;2.75;;
26512;SDS011;14186;53.822;10.152;2023-01-16T00:49:53;5.53;;;3.00;;
26512;SDS011;14186;53.822;10.152;2023-01-16T00:54:53;5.80;;;2.70;;
26512;SDS011;14186;53.822;10.152;2023-01-16T00:59:54;6.13;;;2.78;;
26512;SDS011;14186;53.822;10.152;2023-01-16T01:04:54;6.15;;;2.65;;
26512;SDS011;14186;53.822;10.152;2023-01-16T01:09:55;6.25;;;2.97;;
26512;SDS011;14186;53.822;10.152;2023-01-16T01:14:56;6.57;;;3.20;;
26512;SDS011;14186;53.822;10.152;2023-01-16T01:19:56;8.82;;;3.35;;
26512;SDS011;14186;53.822;10.152;2023-01-16T01:24:56;9.35;;;3.85;;
26512;SDS011;14186;53.822;10.152;2023-01-16T01:29:58;7.60;;;4.00;;
26512;SDS011;14186;53.822;10.152;2023-01-16T01:34:58;8.85;;;4.05;;
26512;SDS011;14186;53.822;10.152;2023-01-16T01:39:59;10.00;;;4.88;;
26512;SDS011;14186;53.822;10.152;2023-01-16T01:45:04;7.93;;;4.55;;
26512;SDS011;14186;53.822;10.152;2023-01-16T01:50:10;10.02;;;4.28;;
26512;SDS011;14186;53.822;10.152;2023-01-16T01:55:12;10.82;;;4.38;;
26512;SDS011;14186;53.822;10.152;2023-01-16T02:00:16;10.57;;;4.30;;
26512;SDS011;14186;53.822;10.152;2023-01-16T02:05:18;15.73;;;4.82;;
26512;SDS011;14186;53.822;10.152;2023-01-16T02:10:21;5.45;;;3.20;;
26512;SDS011;14186;53.822;10.152;2023-01-16T02:15:24;5.88;;;3.40;;
26512;SDS011;14186;53.822;10.152;2023-01-16T02:20:25;13.45;;;3.72;;
26512;SDS011;14186;53.822;10.152;2023-01-16T02:25:31;5.30;;;3.17;;
26512;SDS011;14186;53.822;10.152;2023-01-16T02:30:46;5.88;;;2.38;;
26512;SDS011;14186;53.822;10.152;2023-01-16T02:35:52;6.82;;;2.40;;
26512;SDS011;14186;53.822;10.152;2023-01-16T02:40:55;7.63;;;1.83;;
26512;SDS011;14186;53.822;10.152;2023-01-16T02:46:00;4.70;;;1.83;;
26512;SDS011;14186;53.822;10.152;2023-01-16T02:51:06;6.63;;;2.10;;
26512;SDS011;14186;53.822;10.152;2023-01-16T02:56:10;5.80;;;1.85;;
26512;SDS011;14186;53.822;10.152;2023-01-16T03:01:16;5.25;;;1.65;;
26512;SDS011;14186;53.822;10.152;2023-01-16T03:06:24;6.60;;;1.58;;
26512;SDS011;14186;53.822;10.152;2023-01-16T03:11:29;9.70;;;1.98;;
26512;SDS011;14186;53.822;10.152;2023-01-16T03:16:34;7.33;;;1.97;;
26512;SDS011;14186;53.822;10.152;2023-01-16T03:26:38;6.20;;;2.78;;
26512;SDS011;14186;53.822;10.152;2023-01-16T03:31:44;7.05;;;2.20;;
26512;SDS011;14186;53.822;10.152;2023-01-16T03:36:49;7.82;;;2.90;;
26512;SDS011;14186;53.822;10.152;2023-01-16T03:41:50;4.18;;;2.30;;
26512;SDS011;14186;53.822;10.152;2023-01-16T03:46:53;4.10;;;2.03;;
26512;SDS011;14186;53.822;10.152;2023-01-16T03:51:54;4.50;;;2.25;;
26512;SDS011;14186;53.822;10.152;2023-01-16T03:56:57;7.07;;;2.30;;
26512;SDS011;14186;53.822;10.152;2023-01-16T04:02:03;7.15;;;2.05;;
26512;SDS011;14186;53.822;10.152;2023-01-16T04:07:05;4.97;;;1.80;;
26512;SDS011;14186;53.822;10.152;2023-01-16T04:12:06;8.02;;;1.67;;
26512;SDS011;14186;53.822;10.152;2023-01-16T04:17:08;5.55;;;1.83;;
26512;SDS011;14186;53.822;10.152;2023-01-16T04:22:09;4.38;;;1.40;;
26512;SDS011;14186;53.822;10.152;2023-01-16T04:27:17;4.35;;;1.35;;
26512;SDS011;14186;53.822;10.152;2023-01-16T04:32:19;7.28;;;1.27;;
26512;SDS011;14186;53.822;10.152;2023-01-16T04:37:19;5.22;;;1.05;;
26512;SDS011;14186;53.822;10.152;2023-01-16T04:42:20;3.28;;;1.13;;
26512;SDS011;14186;53.822;10.152;2023-01-16T04:47:21;3.05;;;1.30;;
26512;SDS011;14186;53.822;10.152;2023-01-16T04:52:21;2.85;;;1.13;;
26512;SDS011;14186;53.822;10.152;2023-01-16T04:57:21;7.72;;;1.40;;
26512;SDS011;14186;53.822;10.152;2023-01-16T05:02:23;5.03;;;1.27;;
26512;SDS011;14186;53.822;10.152;2023-01-16T05:07:23;6.22;;;1.10;;
26512;SDS011;14186;53.822;10.152;2023-01-16T05:12:24;3.72;;;1.02;;
26512;SDS011;14186;53.822;10.152;2023-01-16T05:17:25;3.65;;;0.90;;
26512;SDS011;14186;53.822;10.152;2023-01-16T05:22:25;2.35;;;0.85;;
26512;SDS011;14186;53.822;10.152;2023-01-16T05:27:25;5.38;;;1.15;;
26512;SDS011;14186;53.822;10.152;2023-01-16T05:32:27;4.03;;;1.00;;
26512;SDS011;14186;53.822;10.152;2023-01-16T05:37:27;4.55;;;1.10;;
26512;SDS011;14186;53.822;10.152;2023-01-16T05:42:27;2.15;;;0.85;;
26512;SDS011;14186;53.822;10.152;2023-01-16T05:47:29;4.03;;;0.80;;
26512;SDS011;14186;53.822;10.152;2023-01-16T05:52:29;7.18;;;1.02;;
26512;SDS011;14186;53.822;10.152;2023-01-16T05:57:29;5.45;;;0.57;;
26512;SDS011;14186;53.822;10.152;2023-01-16T06:02:31;3.40;;;1.20;;
26512;SDS011;14186;53.822;10.152;2023-01-16T06:07:31;3.97;;;0.90;;
26512;SDS011;14186;53.822;10.152;2023-01-16T06:12:31;5.25;;;0.70;;
26512;SDS011;14186;53.822;10.152;2023-01-16T06:17:33;2.25;;;0.57;;
26512;SDS011;14186;53.822;10.152;2023-01-16T06:22:33;4.00;;;0.63;;
26512;SDS011;14186;53.822;10.152;2023-01-16T06:27:33;5.55;;;0.90;;
26512;SDS011;14186;53.822;10.152;2023-01-16T06:32:35;3.83;;;0.70;;
26512;SDS011;14186;53.822;10.152;2023-01-16T06:37:35;5.35;;;1.13;;
26512;SDS011;14186;53.822;10.152;2023-01-16T06:42:35;6.55;;;0.70;;
26512;SDS011;14186;53.822;10.152;2023-01-16T06:47:37;5.28;;;1.05;;
26512;SDS011;14186;53.822;10.152;2023-01-16T06:52:37;2.90;;;0.73;;
26512;SDS011;14186;53.822;10.152;2023-01-16T06:57:37;3.25;;;0.68;;
26512;SDS011;14186;53.822;10.152;2023-01-16T07:02:38;2.55;;;0.60;;
26512;SDS011;14186;53.822;10.152;2023-01-16T07:07:39;4.88;;;0.77;;
26512;SDS011;14186;53.822;10.152;2023-01-16T07:12:39;6.43;;;0.93;;
26512;SDS011;14186;53.822;10.152;2023-01-16T07:17:40;3.45;;;0.90;;
26512;SDS011;14186;53.822;10.152;2023-01-16T07:22:41;3.22;;;0.75;;
26512;SDS011;14186;53.822;10.152;2023-01-16T07:27:41;2.78;;;0.88;;
26512;SDS011;14186;53.822;10.152;2023-01-16T07:32:43;2.28;;;0.70;;
26512;SDS011;14186;53.822;10.152;2023-01-16T07:37:43;4.03;;;0.60;;
26512;SDS011;14186;53.822;10.152;2023-01-16T07:42:44;1.40;;;0.65;;
26512;SDS011;14186;53.822;10.152;2023-01-16T07:47:45;5.35;;;0.90;;
26512;SDS011;14186;53.822;10.152;2023-01-16T07:52:45;5.93;;;0.47;;
26512;SDS011;14186;53.822;10.152;2023-01-16T07:57:45;4.40;;;0.93;;
26512;SDS011;14186;53.822;10.152;2023-01-16T08:02:47;3.03;;;0.70;;
26512;SDS011;14186;53.822;10.152;2023-01-16T08:07:47;2.75;;;0.70;;
26512;SDS011;14186;53.822;10.152;2023-01-16T08:12:47;1.55;;;0.50;;
26512;SDS011;14186;53.822;10.152;2023-01-16T08:17:49;3.33;;;0.70;;
26512;SDS011;14186;53.822;10.152;2023-01-16T08:22:49;3.83;;;0.68;;
26512;SDS011;14186;53.822;10.152;2023-01-16T08:27:50;3.67;;;0.70;;
26512;SDS011;14186;53.822;10.152;2023-01-16T08:32:51;1.88;;;0.75;;
26512;SDS011;14186;53.822;10.152;2023-01-16T08:37:56;5.05;;;0.82;;
26512;SDS011;14186;53.822;10.152;2023-01-16T08:42:56;3.78;;;0.93;;
26512;SDS011;14186;53.822;10.152;2023-01-16T08:47:58;2.85;;;0.60;;
26512;SDS011;14186;53.822;10.152;2023-01-16T08:52:59;2.72;;;0.80;;
26512;SDS011;14186;53.822;10.152;2023-01-16T08:57:59;4.20;;;0.57;;
26512;SDS011;14186;53.822;10.152;2023-01-16T09:03:00;2.42;;;0.55;;
26512;SDS011;14186;53.822;10.152;2023-01-16T09:08:01;3.50;;;1.13;;
26512;SDS011;14186;53.822;10.152;2023-01-16T09:13:01;2.72;;;0.52;;
26512;SDS011;14186;53.822;10.152;2023-01-16T09:18:02;1.75;;;0.52;;
26512;SDS011;14186;53.822;10.152;2023-01-16T09:23:03;2.95;;;0.70;;
26512;SDS011;14186;53.822;10.152;2023-01-16T09:28:03;3.05;;;0.65;;
26512;SDS011;14186;53.822;10.152;2023-01-16T09:33:05;2.42;;;0.80;;
26512;SDS011;14186;53.822;10.152;2023-01-16T09:38:05;4.65;;;0.80;;
26512;SDS011;14186;53.822;10.152;2023-01-16T09:43:09;2.80;;;0.70;;
26512;SDS011;14186;53.822;10.152;2023-01-16T09:48:18;6.32;;;0.63;;
26512;SDS011;14186;53.822;10.152;2023-01-16T09:53:23;1.90;;;0.60;;
26512;SDS011;14186;53.822;10.152;2023-01-16T09:58:27;2.72;;;0.60;;
26512;SDS011;14186;53.822;10.152;2023-01-16T10:03:30;10.32;;;1.23;;
26512;SDS011;14186;53.822;10.152;2023-01-16T10:08:31;3.20;;;0.68;;
26512;SDS011;14186;53.822;10.152;2023-01-16T10:13:45;2.55;;;0.70;;
26512;SDS011;14186;53.822;10.152;2023-01-16T10:18:52;3.25;;;0.65;;
26512;SDS011;14186;53.822;10.152;2023-01-16T10:23:54;2.03;;;0.60;;
26512;SDS011;14186;53.822;10.152;2023-01-16T10:29:00;4.35;;;0.82;;
26512;SDS011;14186;53.822;10.152;2023-01-16T10:34:04;3.15;;;0.60;;
26512;SDS011;14186;53.822;10.152;2023-01-16T10:39:07;5.13;;;0.80;;
26512;SDS011;14186;53.822;10.152;2023-01-16T10:44:11;3.28;;;0.90;;
26512;SDS011;14186;53.822;10.152;2023-01-16T10:49:14;5.47;;;0.88;;
26512;SDS011;14186;53.822;10.152;2023-01-16T10:54:15;3.83;;;0.70;;
26512;SDS011;14186;53.822;10.152;2023-01-16T10:59:15;7.28;;;1.25;;
26512;SDS011;14186;53.822;10.152;2023-01-16T11:04:18;4.85;;;0.90;;
26512;SDS011;14186;53.822;10.152;2023-01-16T11:09:18;2.72;;;0.80;;
26512;SDS011;14186;53.822;10.152;2023-01-16T11:14:21;1.55;;;0.70;;
26512;SDS011;14186;53.822;10.152;2023-01-16T11:19:24;2.00;;;0.60;;
26512;SDS011;14186;53.822;10.152;2023-01-16T11:24:30;2.88;;;0.68;;
26512;SDS011;14186;53.822;10.152;2023-01-16T11:29:34;1.65;;;0.68;;
26512;SDS011;14186;53.822;10.152;2023-01-16T11:34:37;1.63;;;0.77;;
26512;SDS011;14186;53.822;10.152;2023-01-16T11:39:37;4.53;;;0.88;;
26512;SDS011;14186;53.822;10.152;2023-01-16T11:44:38;3.10;;;0.90;;
26512;SDS011;14186;53.822;10.152;2023-01-16T11:49:44;2.75;;;0.70;;
26512;SDS011;14186;53.822;10.152;2023-01-16T11:54:45;2.28;;;0.75;;
26512;SDS011;14186;53.822;10.152;2023-01-16T11:59:51;6.25;;;0.98;;
26512;SDS011;14186;53.822;10.152;2023-01-16T12:04:59;2.78;;;0.60;;
26512;SDS011;14186;53.822;10.152;2023-01-16T12:10:02;3.03;;;0.75;;
26512;SDS011;14186;53.822;10.152;2023-01-16T12:15:06;4.97;;;0.80;;
26512;SDS011;14186;53.822;10.152;2023-01-16T12:20:10;4.88;;;1.33;;
26512;SDS011;14186;53.822;10.152;2023-01-16T12:25:17;2.72;;;0.95;;
26512;SDS011;14186;53.822;10.152;2023-01-16T12:30:22;2.55;;;1.15;;
26512;SDS011;14186;53.822;10.152;2023-01-16T12:35:30;3.97;;;1.17;;
26512;SDS011;14186;53.822;10.152;2023-01-16T12:40:36;4.97;;;1.73;;
26512;SDS011;14186;53.822;10.152;2023-01-16T12:45:41;4.18;;;1.00;;
26512;SDS011;14186;53.822;10.152;2023-01-16T12:50:49;5.40;;;1.30;;
26512;SDS011;14186;53.822;10.152;2023-01-16T12:55:55;2.60;;;1.15;;
26512;SDS011;14186;53.822;10.152;2023-01-16T13:01:02;4.25;;;1.35;;
26512;SDS011;14186;53.822;10.152;2023-01-16T13:06:05;2.05;;;0.85;;
26512;SDS011;14186;53.822;10.152;2023-01-16T13:11:08;6.57;;;1.15;;
26512;SDS011;14186;53.822;10.152;2023-01-16T13:16:11;4.70;;;0.88;;
26512;SDS011;14186;53.822;10.152;2023-01-16T13:21:14;2.05;;;0.65;;
26512;SDS011;14186;53.822;10.152;2023-01-16T13:26:16;2.88;;;0.60;;
26512;SDS011;14186;53.822;10.152;2023-01-16T13:31:22;3.10;;;0.88;;
26512;SDS011;14186;53.822;10.152;2023-01-16T13:36:30;2.72;;;0.60;;
26512;SDS011;14186;53.822;10.152;2023-01-16T13:41:37;3.75;;;0.70;;
26512;SDS011;14186;53.822;10.152;2023-01-16T13:46:39;2.97;;;0.60;;
26512;SDS011;14186;53.822;10.152;2023-01-16T13:51:41;2.92;;;0.70;;
26512;SDS011;14186;53.822;10.152;2023-01-16T13:56:42;4.35;;;0.98;;
26512;SDS011;14186;53.822;10.152;2023-01-16T14:01:52;2.75;;;0.50;;
26512;SDS011;14186;53.822;10.152;2023-01-16T14:06:55;4.75;;;0.80;;
26512;SDS011;14186;53.822;10.152;2023-01-16T14:11:59;3.88;;;0.90;;
26512;SDS011;14186;53.822;10.152;2023-01-16T14:17:00;2.35;;;0.68;;
26512;SDS011;14186;53.822;10.152;2023-01-16T14:22:02;6.07;;;1.02;;
26512;SDS011;14186;53.822;10.152;2023-01-16T14:27:03;5.85;;;0.70;;
26512;SDS011;14186;53.822;10.152;2023-01-16T14:32:05;7.43;;;1.05;;
26512;SDS011;14186;53.822;10.152;2023-01-16T14:37:10;4.60;;;1.00;;
26512;SDS011;14186;53.822;10.152;2023-01-16T14:42:15;7.50;;;2.30;;
26512;SDS011;14186;53.822;10.152;2023-01-16T14:47:24;2.33;;;0.90;;
26512;SDS011;14186;53.822;10.152;2023-01-16T14:57:44;2.80;;;0.90;;
26512;SDS011;14186;53.822;10.152;2023-01-16T15:02:46;4.63;;;0.70;;
26512;SDS011;14186;53.822;10.152;2023-01-16T15:07:49;2.83;;;0.70;;
26512;SDS011;14186;53.822;10.152;2023-01-16T15:12:52;3.80;;;0.90;;
26512;SDS011;14186;53.822;10.152;2023-01-16T15:17:52;3.53;;;0.93;;
26512;SDS011;14186;53.822;10.152;2023-01-16T15:22:53;2.92;;;0.90;;
26512;SDS011;14186;53.822;10.152;2023-01-16T15:27:57;1.35;;;0.55;;
26512;SDS011;14186;53.822;10.152;2023-01-16T15:33:00;1.60;;;0.50;;
26512;SDS011;14186;53.822;10.152;2023-01-16T15:38:02;7.43;;;0.73;;
26512;SDS011;14186;53.822;10.152;2023-01-16T15:43:03;3.50;;;0.68;;
26512;SDS011;14186;53.822;10.152;2023-01-16T15:48:10;4.85;;;0.88;;
26512;SDS011;14186;53.822;10.152;2023-01-16T15:53:12;4.07;;;0.90;;
26512;SDS011;14186;53.822;10.152;2023-01-16T15:58:14;6.10;;;0.98;;
26512;SDS011;14186;53.822;10.152;2023-01-16T16:03:16;4.80;;;0.80;;
26512;SDS011;14186;53.822;10.152;2023-01-16T16:08:17;2.33;;;0.80;;
26512;SDS011;14186;53.822;10.152;2023-01-16T16:13:19;7.82;;;1.92;;
26512;SDS011;14186;53.822;10.152;2023-01-16T16:18:19;2.00;;;0.70;;
26512;SDS011;14186;53.822;10.152;2023-01-16T16:23:20;5.20;;;0.90;;
26512;SDS011;14186;53.822;10.152;2023-01-16T16:28:22;3.40;;;0.70;;
26512;SDS011;14186;53.822;10.152;2023-01-16T16:33:24;3.80;;;0.65;;
26512;SDS011;14186;53.822;10.152;2023-01-16T16:38:25;1.63;;;0.63;;
26512;SDS011;14186;53.822;10.152;2023-01-16T16:48:54;7.82;;;1.08;;
26512;SDS011;14186;53.822;10.152;2023-01-16T16:53:56;7.70;;;1.58;;
26512;SDS011;14186;53.822;10.152;2023-01-16T16:58:56;3.08;;;1.30;;
26512;SDS011;14186;53.822;10.152;2023-01-16T17:04:00;5.40;;;1.80;;
26512;SDS011;14186;53.822;10.152;2023-01-16T17:09:02;6.55;;;2.95;;
26512;SDS011;14186;53.822;10.152;2023-01-16T17:14:02;5.40;;;1.83;;
26512;SDS011;14186;53.822;10.152;2023-01-16T17:19:04;6.15;;;2.17;;
26512;SDS011;14186;53.822;10.152;2023-01-16T17:24:07;3.58;;;1.10;;
26512;SDS011;14186;53.822;10.152;2023-01-16T17:29:08;6.97;;;1.20;;
26512;SDS011;14186;53.822;10.152;2023-01-16T17:34:10;3.88;;;1.10;;
26512;SDS011;14186;53.822;10.152;2023-01-16T17:39:12;3.55;;;1.65;;
26512;SDS011;14186;53.822;10.152;2023-01-16T17:44:12;4.82;;;1.70;;
26512;SDS011;14186;53.822;10.152;2023-01-16T17:49:15;6.28;;;2.00;;
26512;SDS011;14186;53.822;10.152;2023-01-16T17:54:15;6.57;;;1.58;;
26512;SDS011;14186;53.822;10.152;2023-01-16T17:59:16;2.72;;;1.30;;
26512;SDS011;14186;53.822;10.152;2023-01-16T18:04:17;2.30;;;1.10;;
26512;SDS011;14186;53.822;10.152;2023-01-16T18:09:17;3.65;;;1.02;;
26512;SDS011;14186;53.822;10.152;2023-01-16T18:14:17;8.38;;;3.40;;
26512;SDS011;14186;53.822;10.152;2023-01-16T18:19:19;3.63;;;1.50;;
26512;SDS011;14186;53.822;10.152;2023-01-16T18:24:19;6.75;;;1.80;;
26512;SDS011;14186;53.822;10.152;2023-01-16T18:29:19;4.55;;;1.08;;
26512;SDS011;14186;53.822;10.152;2023-01-16T18:34:21;15.60;;;4.25;;
26512;SDS011;14186;53.822;10.152;2023-01-16T18:39:21;12.40;;;4.32;;
26512;SDS011;14186;53.822;10.152;2023-01-16T18:44:21;2.88;;;1.02;;
26512;SDS011;14186;53.822;10.152;2023-01-16T18:49:23;3.33;;;1.20;;
26512;SDS011;14186;53.822;10.152;2023-01-16T18:54:23;1.25;;;0.63;;
26512;SDS011;14186;53.822;10.152;2023-01-16T18:59:24;2.65;;;1.02;;
26512;SDS011;14186;53.822;10.152;2023-01-16T19:04:26;2.15;;;0.75;;
26512;SDS011;14186;53.822;10.152;2023-01-16T19:09:28;4.38;;;1.13;;
26512;SDS011;14186;53.822;10.152;2023-01-16T19:14:29;4.35;;;0.73;;
26512;SDS011;14186;53.822;10.152;2023-01-16T19:19:31;4.80;;;0.90;;
26512;SDS011;14186;53.822;10.152;2023-01-16T19:24:31;3.30;;;1.00;;
26512;SDS011;14186;53.822;10.152;2023-01-16T19:29:31;4.82;;;1.00;;
26512;SDS011;14186;53.822;10.152;2023-01-16T19:34:33;1.98;;;0.75;;
26512;SDS011;14186;53.822;10.152;2023-01-16T19:39:34;4.38;;;1.48;;
26512;SDS011;14186;53.822;10.152;2023-01-16T19:44:34;3.88;;;1.35;;
26512;SDS011;14186;53.822;10.152;2023-01-16T19:49:36;3.55;;;1.00;;
26512;SDS011;14186;53.822;10.152;2023-01-16T19:54:36;4.97;;;1.40;;
26512;SDS011;14186;53.822;10.152;2023-01-16T19:59:37;4.45;;;1.00;;
26512;SDS011;14186;53.822;10.152;2023-01-16T20:04:39;2.70;;;0.70;;
26512;SDS011;14186;53.822;10.152;2023-01-16T20:09:39;6.65;;;0.70;;
26512;SDS011;14186;53.822;10.152;2023-01-16T20:14:40;2.58;;;0.75;;
26512;SDS011;14186;53.822;10.152;2023-01-16T20:19:41;2.05;;;0.80;;
26512;SDS011;14186;53.822;10.152;2023-01-16T20:24:42;2.72;;;0.70;;
26512;SDS011;14186;53.822;10.152;2023-01-16T20:29:42;1.92;;;1.05;;
26512;SDS011;14186;53.822;10.152;2023-01-16T20:34:43;1.65;;;0.60;;
26512;SDS011;14186;53.822;10.152;2023-01-16T20:39:44;1.58;;;0.63;;
26512;SDS011;14186;53.822;10.152;2023-01-16T20:44:44;3.30;;;0.90;;
26512;SDS011;14186;53.822;10.152;2023-01-16T20:49:45;2.30;;;0.77;;
26512;SDS011;14186;53.822;10.152;2023-01-16T20:54:47;2.40;;;0.60;;
26512;SDS011;14186;53.822;10.152;2023-01-16T20:59:47;2.17;;;0.70;;
26512;SDS011;14186;53.822;10.152;2023-01-16T21:04:48;1.73;;;0.57;;
26512;SDS011;14186;53.822;10.152;2023-01-16T21:09:49;2.85;;;0.80;;
26512;SDS011;14186;53.822;10.152;2023-01-16T21:14:49;2.55;;;0.60;;
26512;SDS011;14186;53.822;10.152;2023-01-16T21:19:50;2.15;;;0.65;;
26512;SDS011;14186;53.822;10.152;2023-01-16T21:24:50;2.63;;;0.60;;
26512;SDS011;14186;53.822;10.152;2023-01-16T21:29:51;1.60;;;0.38;;
26512;SDS011;14186;53.822;10.152;2023-01-16T21:34:53;5.28;;;0.80;;
26512;SDS011;14186;53.822;10.152;2023-01-16T21:39:53;1.92;;;0.60;;
26512;SDS011;14186;53.822;10.152;2023-01-16T21:44:54;3.50;;;0.80;;
26512;SDS011;14186;53.822;10.152;2023-01-16T21:49:55;2.88;;;0.73;;
26512;SDS011;14186;53.822;10.152;2023-01-16T21:54:55;2.67;;;0.80;;
26512;SDS011;14186;53.822;10.152;2023-01-16T21:59:56;3.45;;;0.77;;
26512;SDS011;14186;53.822;10.152;2023-01-16T22:04:57;5.00;;;0.80;;
26512;SDS011;14186;53.822;10.152;2023-01-16T22:09:57;1.23;;;0.70;;
26512;SDS011;14186;53.822;10.152;2023-01-16T22:14:58;2.78;;;0.73;;
26512;SDS011;14186;53.822;10.152;2023-01-16T22:19:59;3.33;;;1.05;;
26512;SDS011;14186;53.822;10.152;2023-01-16T22:24:59;3.40;;;0.98;;
26512;SDS011;14186;53.822;10.152;2023-01-16T22:30:00;1.60;;;0.80;;
26512;SDS011;14186;53.822;10.152;2023-01-16T22:35:03;6.53;;;0.80;;
26512;SDS011;14186;53.822;10.152;2023-01-16T22:40:04;3.95;;;1.00;;
26512;SDS011;14186;53.822;10.152;2023-01-16T22:45:05;2.75;;;0.68;;
26512;SDS011;14186;53.822;10.152;2023-01-16T22:50:07;3.10;;;0.90;;
26512;SDS011;14186;53.822;10.152;2023-01-16T22:55:08;2.47;;;0.90;;
26512;SDS011;14186;53.822;10.152;2023-01-16T23:00:08;1.55;;;0.68;;
26512;SDS011;14186;53.822;10.152;2023-01-16T23:05:10;2.10;;;0.90;;
26512;SDS011;14186;53.822;10.152;2023-01-16T23:10:10;3.72;;;0.70;;
26512;SDS011;14186;53.822;10.152;2023-01-16T23:15:11;2.42;;;0.70;;
26512;SDS011;14186;53.822;10.152;2023-01-16T23:20:12;4.88;;;0.82;;
26512;SDS011;14186;53.822;10.152;2023-01-16T23:25:13;4.75;;;0.85;;
26512;SDS011;14186;53.822;10.152;2023-01-16T23:30:13;2.15;;;0.70;;
26512;SDS011;14186;53.822;10.152;2023-01-16T23:35:15;1.42;;;0.75;;
26512;SDS011;14186;53.822;10.152;2023-01-16T23:40:15;3.45;;;0.77;;
26512;SDS011;14186;53.822;10.152;2023-01-16T23:45:16;2.55;;;1.02;;
26512;SDS011;14186;53.822;10.152;2023-01-16T23:50:17;2.88;;;0.63;;
26512;SDS011;14186;53.822;10.152;2023-01-16T23:55:17;1.02;;;0.65;;
